Time;durP1;ratioP1;P1;durP2;ratioP2;P2;SDS_P1;SDS_P2;PMS_P1;PMS_P2;Temp;Humidity;BMP_temperature;BMP_pressure;BME280_temperature;BME280_humidity;BME280_pressure;Samples;Min_cycle;Max_cycle;Signal;HPM_P1;HPM_P2
2021/10/19 00:03:45;;;;;;;;;;;18.30;44.90;;;;;;8236947;28;20048;-49
2021/10/19 00:07:45;;;;;;;;;;;18.30;44.90;;;;;;8237966;28;19922;-51
2021/10/19 00:11:46;;;;;;;;;;;18.30;44.90;;;;;;8236848;28;19997;-50
2021/10/19 00:15:46;;;;;;;;;;;18.30;44.90;;;;;;8237134;28;19914;-50
2021/10/19 00:19:46;;;;;;;;;;;18.30;44.90;;;;;;8237013;28;19914;-50
2021/10/19 00:23:47;;;;;;;;;;;18.30;44.90;;;;;;8236678;28;19914;-50
2021/10/19 00:27:48;;;;;;;;;;;18.30;44.90;;;;;;8237410;28;20379;-50
2021/10/19 00:31:50;;;;;;;;;;;18.30;44.90;;;;;;8236917;28;19914;-50
2021/10/19 00:35:50;;;;;;;;;;;18.20;44.90;;;;;;8236319;28;19921;-50
2021/10/19 00:39:50;;;;;;;;;;;18.30;44.90;;;;;;8236740;28;19918;-49
2021/10/19 00:43:51;;;;;;;;;;;18.20;44.90;;;;;;8237146;28;19914;-50
2021/10/19 00:47:52;;;;;;;;;;;18.20;44.90;;;;;;8235734;28;19922;-50
2021/10/19 00:51:53;;;;;;;;;;;18.20;44.90;;;;;;8235980;28;19996;-50
2021/10/19 00:55:53;;;;;;;;;;;18.20;44.90;;;;;;8236251;28;20283;-49
2021/10/19 00:59:54;;;;;;;;;;;18.20;44.90;;;;;;8236232;28;19914;-50
2021/10/19 01:03:54;;;;;;;;;;;18.20;44.90;;;;;;8235610;28;19960;-51
2021/10/19 01:07:55;;;;;;;;;;;18.20;44.90;;;;;;8234832;28;19953;-50
2021/10/19 01:11:56;;;;;;;;;;;18.20;44.90;;;;;;8234990;28;19977;-52
2021/10/19 01:16:03;;;;;;;;;;;18.20;44.90;;;;;;8234471;28;19914;-50
2021/10/19 01:20:13;;;;;;;;;;;18.20;44.90;;;;;;8236118;28;19921;-52
2021/10/19 01:24:13;;;;;;;;;;;18.20;44.90;;;;;;8234870;28;20267;-53
2021/10/19 01:28:14;;;;;;;;;;;18.20;44.90;;;;;;8234802;28;19922;-52
2021/10/19 01:32:14;;;;;;;;;;;18.20;44.90;;;;;;8234953;28;19926;-51
2021/10/19 01:36:15;;;;;;;;;;;18.20;44.90;;;;;;8235085;28;20000;-49
2021/10/19 01:40:16;;;;;;;;;;;18.20;44.90;;;;;;8234888;28;19920;-50
2021/10/19 01:44:16;;;;;;;;;;;18.20;44.90;;;;;;8234675;28;19949;-50
2021/10/19 01:48:17;;;;;;;;;;;18.10;44.80;;;;;;8233819;28;19945;-50
2021/10/19 01:52:17;;;;;;;;;;;18.10;44.80;;;;;;8234400;28;19922;-49
2021/10/19 01:56:18;;;;;;;;;;;18.10;44.90;;;;;;8234870;28;19961;-49
2021/10/19 02:00:18;;;;;;;;;;;18.10;44.80;;;;;;8233625;28;19914;-50
2021/10/19 02:04:19;;;;;;;;;;;18.10;44.80;;;;;;8233850;28;20308;-50
2021/10/19 02:08:19;;;;;;;;;;;18.10;44.80;;;;;;8233697;28;20267;-53
2021/10/19 02:12:20;;;;;;;;;;;18.10;44.80;;;;;;8234013;28;20375;-50
2021/10/19 02:16:20;;;;;;;;;;;18.10;44.90;;;;;;8233654;28;19997;-50
2021/10/19 02:20:21;;;;;;;;;;;18.10;44.90;;;;;;8233534;28;19914;-50
2021/10/19 02:24:22;;;;;;;;;;;18.10;44.90;;;;;;8233102;28;19914;-49
2021/10/19 02:28:23;;;;;;;;;;;18.10;44.80;;;;;;8233816;28;20315;-50
2021/10/19 02:32:23;;;;;;;;;;;18.10;44.80;;;;;;8233380;28;19913;-51
2021/10/19 02:36:24;;;;;;;;;;;18.10;44.90;;;;;;8232811;28;19921;-50
2021/10/19 02:40:25;;;;;;;;;;;18.10;44.90;;;;;;8233034;28;19918;-50
2021/10/19 02:44:25;;;;;;;;;;;18.10;44.80;;;;;;8233299;28;19910;-49
2021/10/19 02:48:26;;;;;;;;;;;18.10;44.80;;;;;;8233524;28;20016;-50
2021/10/19 02:52:26;;;;;;;;;;;18.10;44.90;;;;;;8233321;28;19921;-49
2021/10/19 02:56:27;;;;;;;;;;;18.10;44.80;;;;;;8233033;28;19921;-49
2021/10/19 03:00:27;;;;;;;;;;;18.00;44.80;;;;;;8232606;28;20010;-50
2021/10/19 03:04:27;;;;;;;;;;;18.00;44.90;;;;;;8233460;28;19924;-49
2021/10/19 03:08:28;;;;;;;;;;;18.00;44.90;;;;;;8232576;28;20347;-52
2021/10/19 03:12:28;;;;;;;;;;;18.00;44.80;;;;;;8232187;28;20371;-51
2021/10/19 03:16:29;;;;;;;;;;;18.00;44.90;;;;;;8232618;28;21796;-51
2021/10/19 03:20:30;;;;;;;;;;;18.00;44.90;;;;;;8233162;28;19917;-52
2021/10/19 03:24:30;;;;;;;;;;;18.00;44.90;;;;;;8232217;28;19917;-48
2021/10/19 03:28:31;;;;;;;;;;;18.00;44.90;;;;;;8232449;28;20023;-50
2021/10/19 03:32:31;;;;;;;;;;;18.00;44.90;;;;;;8232370;28;19957;-50
2021/10/19 03:36:32;;;;;;;;;;;18.00;44.90;;;;;;8231743;28;20001;-50
2021/10/19 03:40:33;;;;;;;;;;;18.00;44.90;;;;;;8239150;28;19945;-49
2021/10/19 03:44:33;;;;;;;;;;;18.00;44.90;;;;;;8238146;28;20372;-50
2021/10/19 03:48:33;;;;;;;;;;;18.00;44.90;;;;;;8237313;28;19929;-49
2021/10/19 03:52:34;;;;;;;;;;;18.00;44.90;;;;;;8237819;28;19918;-49
2021/10/19 03:56:34;;;;;;;;;;;18.00;44.90;;;;;;8238503;28;19992;-50
2021/10/19 04:00:35;;;;;;;;;;;18.00;44.90;;;;;;8237229;28;19914;-50
2021/10/19 04:04:36;;;;;;;;;;;18.00;44.90;;;;;;8236645;28;19921;-50
2021/10/19 04:08:38;;;;;;;;;;;18.00;44.90;;;;;;8237346;28;19922;-51
2021/10/19 04:12:38;;;;;;;;;;;18.00;44.90;;;;;;8236868;28;20370;-52
2021/10/19 04:16:39;;;;;;;;;;;18.00;44.90;;;;;;8237691;28;19910;-49
2021/10/19 04:20:39;;;;;;;;;;;18.00;44.90;;;;;;8237195;28;19914;-51
2021/10/19 04:24:39;;;;;;;;;;;18.00;44.90;;;;;;8236441;28;19969;-49
2021/10/19 04:28:42;;;;;;;;;;;18.00;44.90;;;;;;8236837;28;19922;-50
2021/10/19 04:32:42;;;;;;;;;;;18.00;44.90;;;;;;8237520;28;19924;-50
2021/10/19 04:36:43;;;;;;;;;;;18.00;44.90;;;;;;8236238;28;19972;-51
2021/10/19 04:40:43;;;;;;;;;;;18.00;44.90;;;;;;8236636;28;20418;-49
2021/10/19 04:44:45;;;;;;;;;;;18.00;44.90;;;;;;8236211;28;19910;-46
2021/10/19 04:48:45;;;;;;;;;;;18.00;44.90;;;;;;8236589;28;19922;-49
2021/10/19 04:52:45;;;;;;;;;;;18.00;44.90;;;;;;8236130;28;19971;-49
2021/10/19 04:56:46;;;;;;;;;;;18.00;44.90;;;;;;8235478;28;19977;-51
2021/10/19 05:00:47;;;;;;;;;;;18.00;44.90;;;;;;8235788;28;19921;-49
2021/10/19 05:04:47;;;;;;;;;;;18.00;44.90;;;;;;8235728;28;19985;-50
2021/10/19 05:08:48;;;;;;;;;;;18.00;44.90;;;;;;8235756;28;20343;-49
2021/10/19 05:12:49;;;;;;;;;;;18.00;44.90;;;;;;8235775;28;19942;-52
2021/10/19 05:16:49;;;;;;;;;;;18.00;44.90;;;;;;8235484;28;19969;-51
2021/10/19 05:20:49;;;;;;;;;;;18.00;44.90;;;;;;8234881;28;20426;-50
2021/10/19 05:24:50;;;;;;;;;;;18.00;45.00;;;;;;8235670;28;19969;-50
2021/10/19 05:28:50;;;;;;;;;;;18.00;44.90;;;;;;8235059;28;20376;-52
2021/10/19 05:32:51;;;;;;;;;;;18.00;44.90;;;;;;8234226;28;19953;-50
2021/10/19 05:36:51;;;;;;;;;;;17.90;44.90;;;;;;8234894;28;19945;-51
2021/10/19 05:40:52;;;;;;;;;;;18.00;45.00;;;;;;8235098;28;19914;-49
2021/10/19 05:44:52;;;;;;;;;;;17.90;44.90;;;;;;8233946;28;20327;-48
2021/10/19 05:48:53;;;;;;;;;;;17.90;44.90;;;;;;8234564;28;19926;-49
2021/10/19 05:52:53;;;;;;;;;;;17.90;44.90;;;;;;8234345;28;20385;-50
2021/10/19 05:56:54;;;;;;;;;;;17.90;44.90;;;;;;8233758;28;19918;-49
2021/10/19 06:00:54;;;;;;;;;;;17.90;45.00;;;;;;8234291;28;19957;-52
2021/10/19 06:04:55;;;;;;;;;;;17.90;45.00;;;;;;8234135;28;19914;-49
2021/10/19 06:08:56;;;;;;;;;;;17.90;45.00;;;;;;8233440;28;19922;-49
2021/10/19 06:12:56;;;;;;;;;;;17.90;44.90;;;;;;8233913;28;20372;-51
2021/10/19 06:16:57;;;;;;;;;;;17.90;44.90;;;;;;8234241;28;19913;-51
2021/10/19 06:20:57;;;;;;;;;;;17.90;45.00;;;;;;8233224;28;19914;-52
2021/10/19 06:24:58;;;;;;;;;;;17.90;44.90;;;;;;8233423;28;19914;-49
2021/10/19 06:28:58;;;;;;;;;;;17.90;45.00;;;;;;8233363;28;19922;-49
2021/10/19 06:32:59;;;;;;;;;;;17.90;45.00;;;;;;8233189;28;19910;-48
2021/10/19 06:36:59;;;;;;;;;;;17.90;45.00;;;;;;8233389;28;20386;-50
2021/10/19 06:41:00;;;;;;;;;;;17.90;45.00;;;;;;8233241;28;19921;-50
2021/10/19 06:45:00;;;;;;;;;;;17.90;45.00;;;;;;8232670;28;19921;-50
2021/10/19 06:49:01;;;;;;;;;;;17.90;45.00;;;;;;8232976;28;19922;-49
2021/10/19 06:53:01;;;;;;;;;;;17.90;45.00;;;;;;8233882;28;20359;-50
2021/10/19 06:57:02;;;;;;;;;;;17.90;45.00;;;;;;8232713;28;19922;-52
2021/10/19 07:01:05;;;;;;;;;;;17.90;45.00;;;;;;8232815;28;19921;-49
2021/10/19 07:05:06;;;;;;;;;;;18.00;45.00;;;;;;8232845;28;19964;-49
2021/10/19 07:09:06;;;;;;;;;;;17.90;45.00;;;;;;8233019;28;20348;-48
2021/10/19 07:13:07;;;;;;;;;;;18.00;45.00;;;;;;8234309;28;19914;-50
2021/10/19 07:17:07;;;;;;;;;;;17.90;45.00;;;;;;8239020;28;20371;-50
2021/10/19 07:21:08;;;;;;;;;;;17.90;45.00;;;;;;8238493;28;19914;-50
2021/10/19 07:25:08;;;;;;;;;;;17.90;45.00;;;;;;8239084;28;20371;-50
2021/10/19 07:29:10;;;;;;;;;;;18.00;45.00;;;;;;8239301;28;19918;-52
2021/10/19 07:33:10;;;;;;;;;;;17.90;45.00;;;;;;8237938;28;19921;-49
2021/10/19 07:37:10;;;;;;;;;;;17.90;45.00;;;;;;8238407;28;19914;-49
2021/10/19 07:41:11;;;;;;;;;;;18.00;45.00;;;;;;8238406;28;20277;-48
2021/10/19 07:45:12;;;;;;;;;;;18.00;45.00;;;;;;8238643;28;19997;-52
2021/10/19 07:49:12;;;;;;;;;;;18.00;45.10;;;;;;8238195;28;19929;-49
2021/10/19 07:53:13;;;;;;;;;;;18.00;45.00;;;;;;8238205;28;20016;-49
2021/10/19 07:57:14;;;;;;;;;;;18.00;45.00;;;;;;8237463;28;19921;-51
2021/10/19 08:01:15;;;;;;;;;;;18.00;45.00;;;;;;8238718;28;19914;-51
2021/10/19 08:05:16;;;;;;;;;;;18.00;45.00;;;;;;8237512;28;19920;-51
2021/10/19 08:09:16;;;;;;;;;;;18.00;45.00;;;;;;8237067;28;19922;-52
2021/10/19 08:13:18;;;;;;;;;;;18.00;45.00;;;;;;8237622;28;20374;-50
2021/10/19 08:17:19;;;;;;;;;;;18.00;45.00;;;;;;8237053;28;19922;-50
2021/10/19 08:21:20;;;;;;;;;;;18.00;45.00;;;;;;8237456;28;20279;-49
2021/10/19 08:25:20;;;;;;;;;;;18.00;45.00;;;;;;8236783;28;19914;-52
2021/10/19 08:29:21;;;;;;;;;;;18.00;45.00;;;;;;8236715;28;19985;-50
2021/10/19 08:33:21;;;;;;;;;;;18.00;45.00;;;;;;8236195;28;19921;-50
2021/10/19 08:37:21;;;;;;;;;;;18.00;45.00;;;;;;8237328;28;19932;-50
2021/10/19 08:41:26;;;;;;;;;;;18.10;45.00;;;;;;8236498;28;20479;-50
2021/10/19 08:45:30;;;;;;;;;;;18.10;45.00;;;;;;8235907;28;19921;-49
2021/10/19 08:49:30;;;;;;;;;;;18.10;45.10;;;;;;8236335;28;20326;-50
2021/10/19 08:53:34;;;;;;;;;;;18.10;45.00;;;;;;8236651;28;19953;-50
2021/10/19 08:57:34;;;;;;;;;;;18.10;45.00;;;;;;8236196;28;19981;-50
2021/10/19 09:01:36;;;;;;;;;;;18.10;45.10;;;;;;8236007;28;20000;-49
2021/10/19 09:05:36;;;;;;;;;;;18.10;45.10;;;;;;8235899;28;19910;-52
2021/10/19 09:09:37;;;;;;;;;;;18.10;45.10;;;;;;8235113;28;19926;-50
2021/10/19 09:13:37;;;;;;;;;;;18.10;45.10;;;;;;8236063;28;19910;-50
2021/10/19 09:17:38;;;;;;;;;;;18.10;45.10;;;;;;8235342;28;19914;-49
2021/10/19 09:21:43;;;;;;;;;;;18.10;45.10;;;;;;8234912;28;19977;-50
2021/10/19 09:25:44;;;;;;;;;;;18.10;45.10;;;;;;8235423;28;20434;-48
2021/10/19 09:29:46;;;;;;;;;;;18.10;45.10;;;;;;8235089;28;19929;-49
2021/10/19 09:33:56;;;;;;;;;;;18.10;45.70;;;;;;8234938;28;19914;-49
2021/10/19 09:37:57;;;;;;;;;;;18.10;45.10;;;;;;8234248;28;20378;-52
2021/10/19 09:41:58;;;;;;;;;;;18.20;45.20;;;;;;8234286;28;19917;-49
2021/10/19 09:45:59;;;;;;;;;;;18.20;45.20;;;;;;8234884;28;19910;-51
2021/10/19 09:50:01;;;;;;;;;;;18.20;45.20;;;;;;8235077;28;19976;-50
2021/10/19 09:54:02;;;;;;;;;;;18.20;45.20;;;;;;8234298;28;19918;-51
2021/10/19 09:58:03;;;;;;;;;;;18.20;45.20;;;;;;8234527;28;19914;-51
2021/10/19 10:02:03;;;;;;;;;;;18.20;45.20;;;;;;8234142;28;19914;-52
2021/10/19 10:06:04;;;;;;;;;;;18.20;45.20;;;;;;8234373;28;19965;-50
2021/10/19 10:10:05;;;;;;;;;;;18.20;45.20;;;;;;8233414;28;20339;-49
2021/10/19 10:14:07;;;;;;;;;;;18.20;45.20;;;;;;8233952;28;20295;-51
2021/10/19 10:18:09;;;;;;;;;;;18.30;45.20;;;;;;8233196;28;20000;-52
2021/10/19 10:22:17;;;;;;;;;;;18.30;45.20;;;;;;8233571;28;20367;-52
2021/10/19 10:26:24;;;;;;;;;;;18.30;45.20;;;;;;8234254;28;20415;-52
2021/10/19 10:30:25;;;;;;;;;;;18.30;45.20;;;;;;8232942;28;19922;-52
2021/10/19 10:34:30;;;;;;;;;;;18.30;45.20;;;;;;8233214;28;19914;-49
2021/10/19 10:38:30;;;;;;;;;;;18.30;45.20;;;;;;8233305;28;19914;-51
2021/10/19 10:42:38;;;;;;;;;;;18.30;45.20;;;;;;8233680;28;20471;-51
2021/10/19 10:46:40;;;;;;;;;;;18.30;45.20;;;;;;8233565;28;20004;-50
2021/10/19 10:50:40;;;;;;;;;;;18.30;45.20;;;;;;8233075;28;19929;-52
2021/10/19 10:54:56;;;;;;;;;;;18.30;45.10;;;;;;8232444;28;19918;-52
2021/10/19 10:58:57;;;;;;;;;;;18.30;45.10;;;;;;8232968;28;19910;-53
2021/10/19 11:03:11;;;;;;;;;;;18.30;45.20;;;;;;8232343;28;19914;-50
2021/10/19 11:07:13;;;;;;;;;;;18.40;45.20;;;;;;8231930;28;20422;-50
2021/10/19 11:11:17;;;;;;;;;;;18.40;45.20;;;;;;8232542;28;20048;-49
2021/10/19 11:15:18;;;;;;;;;;;18.40;45.20;;;;;;8232247;28;20372;-51
2021/10/19 11:19:21;;;;;;;;;;;18.40;45.20;;;;;;8232407;28;19910;-50
2021/10/19 11:23:22;;;;;;;;;;;18.40;45.20;;;;;;8233334;28;20264;-49
2021/10/19 11:27:23;;;;;;;;;;;18.40;45.20;;;;;;8231886;28;19997;-50
2021/10/19 11:31:25;;;;;;;;;;;18.40;45.20;;;;;;8232155;28;19918;-51
2021/10/19 11:35:25;;;;;;;;;;;18.50;45.20;;;;;;8233771;28;19960;-49
2021/10/19 11:39:26;;;;;;;;;;;18.50;45.10;;;;;;8232340;28;19914;-52
2021/10/19 11:43:27;;;;;;;;;;;18.50;45.10;;;;;;8232813;28;19920;-50
2021/10/19 11:47:27;;;;;;;;;;;18.50;45.10;;;;;;8232728;28;19914;-52
2021/10/19 11:51:28;;;;;;;;;;;18.50;45.10;;;;;;8228863;28;20427;-49
2021/10/19 11:55:30;;;;;;;;;;;18.50;45.10;;;;;;8229350;28;19929;-51
2021/10/19 11:59:41;;;;;;;;;;;18.60;45.10;;;;;;8235059;28;19921;-49
2021/10/19 12:03:41;;;;;;;;;;;18.50;45.10;;;;;;8238432;28;20428;-50
2021/10/19 12:07:45;;;;;;;;;;;18.50;45.10;;;;;;8238243;28;19922;-49
2021/10/19 12:11:55;;;;;;;;;;;18.50;45.10;;;;;;8237649;28;19914;-52
2021/10/19 12:15:56;;;;;;;;;;;18.50;45.10;;;;;;8236625;28;20005;-53
2021/10/19 12:19:56;;;;;;;;;;;18.50;45.70;;;;;;8234280;28;19965;-52
2021/10/19 12:24:01;;;;;;;;;;;18.50;45.10;;;;;;8237178;28;19914;-50
2021/10/19 12:28:02;;;;;;;;;;;18.50;45.10;;;;;;8237507;28;19976;-51
2021/10/19 12:32:03;;;;;;;;;;;18.50;45.20;;;;;;8237459;28;19910;-49
2021/10/19 12:36:06;;;;;;;;;;;18.50;45.20;;;;;;8236795;28;19921;-53
2021/10/19 12:40:10;;;;;;;;;;;18.50;45.20;;;;;;8236987;28;19915;-49
2021/10/19 12:44:12;;;;;;;;;;;18.60;45.20;;;;;;8235839;28;19914;-50
2021/10/19 12:48:13;;;;;;;;;;;18.60;45.20;;;;;;8236046;28;19922;-50
2021/10/19 12:52:13;;;;;;;;;;;18.60;45.20;;;;;;8236211;28;19925;-50
2021/10/19 12:56:14;;;;;;;;;;;18.60;45.20;;;;;;8236726;28;19929;-53
2021/10/19 13:00:15;;;;;;;;;;;18.60;45.20;;;;;;8236723;28;19997;-51
2021/10/19 13:04:15;;;;;;;;;;;18.60;45.20;;;;;;8235714;28;19914;-50
2021/10/19 13:08:16;;;;;;;;;;;18.60;45.20;;;;;;8235884;28;20020;-50
2021/10/19 13:12:16;;;;;;;;;;;18.60;45.20;;;;;;8235029;28;19918;-50
2021/10/19 13:16:17;;;;;;;;;;;18.60;45.20;;;;;;8235527;28;19914;-50
2021/10/19 13:20:17;;;;;;;;;;;18.70;45.20;;;;;;8236271;28;19910;-50
2021/10/19 13:24:18;;;;;;;;;;;18.70;45.20;;;;;;8235499;28;19921;-50
2021/10/19 13:28:18;;;;;;;;;;;18.70;45.20;;;;;;8234803;28;19926;-53
2021/10/19 13:32:19;;;;;;;;;;;18.70;45.20;;;;;;8235226;28;19950;-51
2021/10/19 13:36:19;;;;;;;;;;;18.70;45.20;;;;;;8235080;28;19914;-53
2021/10/19 13:40:20;;;;;;;;;;;18.70;45.10;;;;;;8234732;28;19933;-50
2021/10/19 13:44:21;;;;;;;;;;;18.70;45.10;;;;;;8235420;28;19921;-50
2021/10/19 13:48:21;;;;;;;;;;;18.80;45.10;;;;;;8234781;28;19922;-50
2021/10/19 13:52:22;;;;;;;;;;;18.80;45.10;;;;;;8234314;28;20000;-52
2021/10/19 13:56:22;;;;;;;;;;;18.80;45.10;;;;;;8234615;28;19948;-50
2021/10/19 14:00:23;;;;;;;;;;;18.80;45.10;;;;;;8234948;28;20414;-54
2021/10/19 14:04:23;;;;;;;;;;;18.80;45.00;;;;;;8234298;28;20290;-50
2021/10/19 14:08:23;;;;;;;;;;;18.80;45.60;;;;;;8234376;28;19926;-52
2021/10/19 14:12:24;;;;;;;;;;;18.80;45.00;;;;;;8234564;28;19918;-52
2021/10/19 14:16:25;;;;;;;;;;;18.80;45.00;;;;;;8234026;28;19917;-53
2021/10/19 14:20:25;;;;;;;;;;;18.80;45.00;;;;;;8234322;28;19914;-52
2021/10/19 14:24:26;;;;;;;;;;;18.80;45.10;;;;;;8233925;28;19914;-52
2021/10/19 14:28:26;;;;;;;;;;;18.80;45.00;;;;;;8233444;28;20347;-49
2021/10/19 14:32:27;;;;;;;;;;;18.80;45.00;;;;;;8233880;28;20382;-53
2021/10/19 14:36:28;;;;;;;;;;;18.80;45.10;;;;;;8233807;28;19941;-53
2021/10/19 14:40:29;;;;;;;;;;;18.80;45.10;;;;;;8233600;28;19934;-53
2021/10/19 14:44:29;;;;;;;;;;;18.80;45.10;;;;;;8232548;28;19921;-53
2021/10/19 14:48:30;;;;;;;;;;;18.80;45.10;;;;;;8233660;28;20394;-53
2021/10/19 14:52:30;;;;;;;;;;;18.80;45.10;;;;;;8233608;28;19918;-50
2021/10/19 14:56:31;;;;;;;;;;;18.80;45.10;;;;;;8232717;28;19922;-48
2021/10/19 15:00:32;;;;;;;;;;;18.80;45.10;;;;;;8233533;28;20005;-50
2021/10/19 15:04:33;;;;;;;;;;;18.80;45.10;;;;;;8233241;28;19921;-48
2021/10/19 15:08:33;;;;;;;;;;;18.80;45.00;;;;;;8232587;28;19929;-50
2021/10/19 15:12:34;;;;;;;;;;;18.90;45.10;;;;;;8233227;28;20004;-51
2021/10/19 15:16:34;;;;;;;;;;;18.80;45.00;;;;;;8233012;28;19910;-51
2021/10/19 15:20:35;;;;;;;;;;;18.80;45.00;;;;;;8232967;28;20354;-49
2021/10/19 15:24:35;;;;;;;;;;;18.80;45.10;;;;;;8233126;28;19921;-52
2021/10/19 15:28:37;;;;;;;;;;;18.80;45.10;;;;;;8232836;28;19922;-50
2021/10/19 15:32:38;;;;;;;;;;;18.90;45.10;;;;;;8232388;28;19914;-49
2021/10/19 15:36:38;;;;;;;;;;;18.80;45.10;;;;;;8239036;28;19917;-52
2021/10/19 15:40:39;;;;;;;;;;;18.80;45.10;;;;;;8239370;28;19939;-50
2021/10/19 15:44:40;;;;;;;;;;;18.80;45.20;;;;;;8238363;28;19914;-50
2021/10/19 15:48:40;;;;;;;;;;;18.80;45.20;;;;;;8238541;28;19929;-49
2021/10/19 15:52:41;;;;;;;;;;;18.80;45.20;;;;;;8237368;28;19918;-48
2021/10/19 15:56:43;;;;;;;;;;;18.90;45.20;;;;;;8238004;28;19972;-48
2021/10/19 16:00:44;;;;;;;;;;;18.80;45.60;;;;;;8249135;28;19909;-53
2021/10/19 16:04:46;;;;;;;;;;;18.80;47.40;;;;;;8235205;28;19930;-52
2021/10/19 16:08:46;;;;;;;;;;;18.80;47.10;;;;;;8226379;28;20265;-52
2021/10/19 16:12:47;;;;;;;;;;;18.90;47.40;;;;;;8231507;28;19956;-51
2021/10/19 16:16:48;;;;;;;;;;;19.00;47.70;;;;;;8229591;28;20318;-51
2021/10/19 16:20:51;;;;;;;;;;;19.10;47.00;;;;;;8231293;28;19924;-53
2021/10/19 16:24:52;;;;;;;;;;;19.20;46.80;;;;;;8231403;28;19918;-54
2021/10/19 16:28:53;;;;;;;;;;;19.30;46.60;;;;;;8231218;28;19957;-53
2021/10/19 16:32:53;;;;;;;;;;;19.40;46.50;;;;;;8229951;28;20372;-50
2021/10/19 16:36:53;;;;;;;;;;;19.50;46.40;;;;;;8230639;28;20514;-53
2021/10/19 16:40:54;;;;;;;;;;;19.60;46.30;;;;;;8222877;28;20307;-49
2021/10/19 16:44:54;;;;;;;;;;;19.60;46.30;;;;;;8229233;28;20295;-53
2021/10/19 16:48:55;;;;;;;;;;;19.70;46.30;;;;;;8229816;28;20505;-51
2021/10/19 16:52:55;;;;;;;;;;;19.80;46.10;;;;;;8230196;28;20246;-46
2021/10/19 16:56:57;;;;;;;;;;;19.70;45.60;;;;;;8230432;28;19914;-55
2021/10/19 17:00:57;;;;;;;;;;;19.60;46.40;;;;;;8228523;28;19918;-52
2021/10/19 17:04:58;;;;;;;;;;;19.40;46.80;;;;;;8228842;28;19918;-54
2021/10/19 17:08:58;;;;;;;;;;;19.30;47.60;;;;;;8225170;28;20538;-53
2021/10/19 17:12:59;;;;;;;;;;;19.50;47.90;;;;;;8230232;28;19917;-53
2021/10/19 17:17:00;;;;;;;;;;;19.70;47.60;;;;;;8230176;28;19937;-49
2021/10/19 17:21:01;;;;;;;;;;;19.80;47.40;;;;;;8229426;28;19988;-49
2021/10/19 17:25:02;;;;;;;;;;;19.90;47.60;;;;;;8204920;28;19918;-50
2021/10/19 17:29:03;;;;;;;;;;;20.10;47.90;;;;;;8219754;28;20401;-48
2021/10/19 17:33:03;;;;;;;;;;;20.20;47.80;;;;;;8224425;28;20354;-49
2021/10/19 17:37:04;;;;;;;;;;;20.40;47.90;;;;;;8225629;28;19918;-47
2021/10/19 17:41:06;;;;;;;;;;;20.50;47.90;;;;;;8223692;28;19968;-46
2021/10/19 17:45:09;;;;;;;;;;;20.50;47.80;;;;;;8224770;28;19918;-44
2021/10/19 17:49:10;;;;;;;;;;;20.70;47.70;;;;;;8219009;28;19925;-45
2021/10/19 17:53:10;;;;;;;;;;;20.70;47.70;;;;;;8220775;28;19929;-47
2021/10/19 17:57:11;;;;;;;;;;;20.70;47.70;;;;;;8224293;28;19922;-48
2021/10/19 18:01:12;;;;;;;;;;;20.80;47.70;;;;;;8221732;28;19925;-47
2021/10/19 18:05:13;;;;;;;;;;;20.80;47.70;;;;;;8223981;28;19930;-51
2021/10/19 18:09:16;;;;;;;;;;;20.90;47.60;;;;;;8223731;28;19926;-47
2021/10/19 18:13:16;;;;;;;;;;;20.90;47.60;;;;;;8220331;28;20386;-48
2021/10/19 18:17:17;;;;;;;;;;;21.00;47.60;;;;;;8223454;28;19924;-50
2021/10/19 18:21:20;;;;;;;;;;;21.00;47.60;;;;;;8219472;28;19922;-46
2021/10/19 18:25:20;;;;;;;;;;;21.00;47.60;;;;;;8222686;28;19925;-48
2021/10/19 18:29:21;;;;;;;;;;;21.10;47.70;;;;;;8219867;28;20013;-48
2021/10/19 18:33:24;;;;;;;;;;;21.10;47.70;;;;;;8217351;28;19918;-47
2021/10/19 18:37:25;;;;;;;;;;;21.10;47.50;;;;;;8223043;28;19922;-48
2021/10/19 18:41:25;;;;;;;;;;;21.20;47.50;;;;;;8218839;28;19929;-53
2021/10/19 18:45:26;;;;;;;;;;;21.30;47.50;;;;;;8223557;28;20404;-53
2021/10/19 18:49:27;;;;;;;;;;;21.30;47.20;;;;;;8223317;28;19981;-53
2021/10/19 18:53:27;;;;;;;;;;;21.40;47.40;;;;;;8218511;28;19968;-49
2021/10/19 18:57:28;;;;;;;;;;;21.40;47.30;;;;;;8222506;28;19925;-49
2021/10/19 19:01:29;;;;;;;;;;;21.50;47.30;;;;;;8220128;28;20310;-53
2021/10/19 19:05:30;;;;;;;;;;;21.50;47.20;;;;;;8228373;28;19926;-49
2021/10/19 19:09:31;;;;;;;;;;;21.50;47.20;;;;;;8232389;28;19922;-48
2021/10/19 19:13:31;;;;;;;;;;;21.60;47.30;;;;;;8230750;28;19920;-52
2021/10/19 19:17:32;;;;;;;;;;;21.50;47.20;;;;;;8234378;28;19957;-51
2021/10/19 19:21:32;;;;;;;;;;;21.60;47.20;;;;;;8231464;28;19914;-48
2021/10/19 19:25:33;;;;;;;;;;;21.60;47.20;;;;;;8232995;28;19914;-49
2021/10/19 19:29:34;;;;;;;;;;;21.60;47.30;;;;;;8234095;28;20291;-49
2021/10/19 19:33:35;;;;;;;;;;;21.60;47.20;;;;;;8230983;28;19921;-48
2021/10/19 19:37:37;;;;;;;;;;;21.70;47.20;;;;;;8234586;28;19914;-55
2021/10/19 19:41:37;;;;;;;;;;;21.70;47.20;;;;;;8230051;28;19914;-47
2021/10/19 19:45:39;;;;;;;;;;;21.80;47.30;;;;;;8233345;28;19921;-50
2021/10/19 19:49:41;;;;;;;;;;;21.80;47.20;;;;;;8236371;28;19922;-51
2021/10/19 19:53:42;;;;;;;;;;;21.70;46.70;;;;;;8234335;28;19918;-48
2021/10/19 19:57:43;;;;;;;;;;;21.70;47.10;;;;;;8235897;28;19984;-49
2021/10/19 20:01:45;;;;;;;;;;;21.70;47.00;;;;;;8236391;28;20276;-48
2021/10/19 20:05:46;;;;;;;;;;;21.60;46.90;;;;;;8235644;28;19925;-49
2021/10/19 20:09:46;;;;;;;;;;;21.60;47.00;;;;;;8238515;28;19970;-49
2021/10/19 20:13:47;;;;;;;;;;;21.60;46.90;;;;;;8237851;28;20380;-49
2021/10/19 20:17:47;;;;;;;;;;;21.50;46.90;;;;;;8237865;28;19910;-49
2021/10/19 20:21:49;;;;;;;;;;;21.50;46.90;;;;;;8237204;28;19914;-49
2021/10/19 20:25:50;;;;;;;;;;;21.50;46.90;;;;;;8237888;28;19920;-48
2021/10/19 20:29:51;;;;;;;;;;;21.40;46.80;;;;;;8236997;28;19922;-48
2021/10/19 20:33:51;;;;;;;;;;;21.40;46.70;;;;;;8237727;28;19914;-48
2021/10/19 20:37:52;;;;;;;;;;;21.40;46.60;;;;;;8237916;28;19917;-49
2021/10/19 20:41:52;;;;;;;;;;;21.40;46.60;;;;;;8236732;28;19921;-48
2021/10/19 20:45:52;;;;;;;;;;;21.30;46.60;;;;;;8237077;28;20302;-48
2021/10/19 20:49:53;;;;;;;;;;;21.30;46.60;;;;;;8237006;28;19929;-49
2021/10/19 20:53:53;;;;;;;;;;;21.30;46.60;;;;;;8236298;28;19926;-48
2021/10/19 20:57:55;;;;;;;;;;;21.20;46.50;;;;;;8237015;28;19910;-49
2021/10/19 21:01:55;;;;;;;;;;;21.20;46.50;;;;;;8236607;28;19965;-49
2021/10/19 21:05:55;;;;;;;;;;;21.20;46.50;;;;;;8236100;28;19914;-49
2021/10/19 21:09:56;;;;;;;;;;;21.10;46.40;;;;;;8236304;28;19976;-49
2021/10/19 21:13:56;;;;;;;;;;;21.10;46.40;;;;;;8236253;28;19910;-49
2021/10/19 21:17:57;;;;;;;;;;;21.10;46.40;;;;;;8234086;28;19910;-49
2021/10/19 21:21:58;;;;;;;;;;;21.10;46.40;;;;;;8234672;28;19921;-49
2021/10/19 21:25:58;;;;;;;;;;;21.00;46.30;;;;;;8235767;28;19918;-50
2021/10/19 21:29:59;;;;;;;;;;;21.00;46.30;;;;;;8234835;28;20405;-48
2021/10/19 21:33:59;;;;;;;;;;;21.00;46.30;;;;;;8234997;28;19910;-50
2021/10/19 21:38:00;;;;;;;;;;;21.00;46.30;;;;;;8235703;28;20005;-51
2021/10/19 21:42:05;;;;;;;;;;;20.90;46.20;;;;;;8234831;28;19914;-50
2021/10/19 21:46:05;;;;;;;;;;;20.90;46.20;;;;;;8235275;28;19922;-49
2021/10/19 21:50:07;;;;;;;;;;;20.90;46.30;;;;;;8234694;28;20406;-49
2021/10/19 21:54:07;;;;;;;;;;;20.90;46.30;;;;;;8235428;28;19965;-50
2021/10/19 21:58:08;;;;;;;;;;;20.80;46.20;;;;;;8235350;28;20276;-50
2021/10/19 22:02:09;;;;;;;;;;;20.80;46.20;;;;;;8217902;28;19993;-49
2021/10/19 22:06:09;;;;;;;;;;;20.80;46.20;;;;;;8218912;28;19914;-50
2021/10/19 22:10:10;;;;;;;;;;;20.70;46.20;;;;;;8234410;28;19941;-49
2021/10/19 22:14:11;;;;;;;;;;;20.70;46.20;;;;;;8234026;28;19977;-50
2021/10/19 22:18:12;;;;;;;;;;;20.70;46.20;;;;;;8235046;28;20392;-49
2021/10/19 22:22:13;;;;;;;;;;;20.70;46.20;;;;;;8234723;28;19914;-48
2021/10/19 22:26:15;;;;;;;;;;;20.60;46.20;;;;;;8234045;28;19911;-50
2021/10/19 22:30:15;;;;;;;;;;;20.60;46.20;;;;;;8234359;28;20008;-48
2021/10/19 22:34:16;;;;;;;;;;;20.60;46.20;;;;;;8233955;28;19921;-49
2021/10/19 22:38:16;;;;;;;;;;;20.60;46.20;;;;;;8233675;28;19914;-49
2021/10/19 22:42:17;;;;;;;;;;;20.50;46.10;;;;;;8233692;28;19997;-49
2021/10/19 22:46:18;;;;;;;;;;;20.50;46.10;;;;;;8233791;28;19917;-49
2021/10/19 22:50:18;;;;;;;;;;;20.50;46.20;;;;;;8233235;28;19922;-49
2021/10/19 22:54:19;;;;;;;;;;;20.50;46.20;;;;;;8233988;28;19918;-49
2021/10/19 22:58:20;;;;;;;;;;;20.50;46.20;;;;;;8248413;28;19973;-50
2021/10/19 23:02:20;;;;;;;;;;;20.40;46.20;;;;;;8233046;28;19911;-50
2021/10/19 23:06:21;;;;;;;;;;;20.40;46.20;;;;;;8233307;28;19918;-50
2021/10/19 23:10:21;;;;;;;;;;;20.40;46.20;;;;;;8233460;28;20395;-49
2021/10/19 23:14:21;;;;;;;;;;;20.40;46.20;;;;;;8233160;28;19922;-49
2021/10/19 23:18:22;;;;;;;;;;;20.40;46.20;;;;;;8233053;28;20422;-49
2021/10/19 23:22:22;;;;;;;;;;;20.30;46.20;;;;;;8233067;28;19977;-51